Time;durP1;ratioP1;P1;durP2;ratioP2;P2;SDS_P1;SDS_P2;PMS_P1;PMS_P2;Temp;Humidity;BMP_temperature;BMP_pressure;BME280_temperature;BME280_humidity;BME280_pressure;Samples;Min_cycle;Max_cycle;Signal;HPM_P1;HPM_P2
2021/08/30 00:00:36;;;;;;;8.00;4.70;;;14.10;99.90;;;13.08;100.00;97649.63;4979213;28;20473;-78
2021/08/30 00:03:03;;;;;;;9.77;4.70;;;14.10;99.90;;;12.71;100.00;97602.81;4971608;28;20484;-78
2021/08/30 00:05:30;;;;;;;4.23;3.87;;;14.10;99.90;;;13.07;100.00;97639.84;4978022;28;20540;-77
2021/08/30 00:07:57;;;;;;;5.07;4.17;;;14.10;99.90;;;12.80;100.00;97603.28;4977872;28;20489;-79
2021/08/30 00:10:25;;;;;;;4.30;3.90;;;14.10;99.90;;;12.99;100.00;97639.19;4977432;28;20567;-78
2021/08/30 00:12:55;;;;;;;3.93;3.57;;;14.00;99.90;;;13.03;100.00;97636.78;4979636;28;20984;-78
2021/08/30 00:15:22;;;;;;;4.67;4.27;;;14.10;99.90;;;12.93;100.00;97634.69;4982965;28;20457;-77
2021/08/30 00:17:51;;;;;;;4.57;4.17;;;14.00;99.90;;;12.79;100.00;97617.88;4962503;28;20449;-77
2021/08/30 00:20:21;;;;;;;3.97;3.57;;;14.10;99.90;;;12.71;100.00;97600.13;4978338;28;20515;-77
2021/08/30 00:22:49;;;;;;;6.07;4.67;;;13.90;99.90;;;12.83;100.00;97616.34;4978496;28;20473;-78
2021/08/30 00:25:16;;;;;;;5.40;4.87;;;14.00;99.90;;;13.00;100.00;97640.81;4974373;28;21059;-78
2021/08/30 00:27:43;;;;;;;4.30;4.00;;;14.00;99.90;;;12.91;100.00;97641.44;4976570;28;20556;-78
2021/08/30 00:30:14;;;;;;;5.17;4.67;;;14.00;99.90;;;12.85;100.00;97629.66;4969570;28;20453;-77
2021/08/30 00:32:41;;;;;;;4.80;4.40;;;14.00;99.90;;;12.93;100.00;97639.31;4960672;28;20802;-77
2021/08/30 00:35:08;;;;;;;4.53;4.13;;;13.90;99.90;;;12.85;100.00;97632.38;4973874;28;20464;-78
2021/08/30 00:37:36;;;;;;;5.00;4.50;;;13.90;99.90;;;12.88;100.00;97634.59;4978820;28;20473;-78
2021/08/30 00:40:06;;;;;;;5.27;4.77;;;13.90;99.90;;;12.81;100.00;97613.06;4975042;28;20540;-78
2021/08/30 00:42:33;;;;;;;8.70;5.40;;;13.90;99.90;;;12.84;100.00;97600.91;4971307;28;20491;-78
2021/08/30 00:45:03;;;;;;;5.03;4.30;;;14.00;99.90;;;12.85;100.00;97614.22;4973373;28;20818;-78
2021/08/30 00:47:31;;;;;;;5.53;4.93;;;13.90;99.90;;;12.88;100.00;97618.34;4976408;28;20995;-79
2021/08/30 00:49:58;;;;;;;6.50;4.70;;;13.90;99.90;;;12.87;100.00;97601.22;4966899;28;20573;-78
2021/08/30 00:52:27;;;;;;;5.33;4.50;;;13.90;99.90;;;12.83;100.00;97599.25;4972744;28;20477;-77
2021/08/30 00:54:54;;;;;;;5.27;4.80;;;13.90;99.90;;;12.87;100.00;97606.66;4980689;28;20468;-77
2021/08/30 00:57:23;;;;;;;7.00;4.80;;;13.90;99.90;;;12.86;100.00;97610.44;4976788;28;20536;-77
2021/08/30 00:59:50;;;;;;;5.37;4.90;;;13.90;99.90;;;12.84;100.00;97607.13;4975663;28;20471;-77
2021/08/30 01:02:17;;;;;;;5.80;5.30;;;13.90;99.90;;;12.88;100.00;97604.78;4969703;28;20468;-77
2021/08/30 01:04:47;;;;;;;10.67;5.03;;;14.00;99.90;;;12.80;100.00;97608.69;4974050;28;20531;-78
2021/08/30 01:07:23;;;;;;;6.10;5.37;;;13.80;99.90;;;12.55;100.00;97568.34;4973542;28;20466;-77
2021/08/30 01:10:02;;;;;;;6.37;5.57;;;13.80;99.90;;;12.87;100.00;97605.84;4984232;28;20803;-77
2021/08/30 01:12:34;;;;;;;5.80;5.30;;;14.00;99.90;;;12.81;100.00;97595.94;4974816;28;20471;-77
2021/08/30 01:15:04;;;;;;;6.07;5.47;;;13.90;99.90;;;12.79;100.00;97600.78;4979478;28;20456;-78
2021/08/30 01:17:34;;;;;;;6.10;4.67;;;13.80;99.90;;;12.57;100.00;97560.78;4979361;28;20921;-77
2021/08/30 01:20:10;;;;;;;5.37;4.87;;;13.80;99.90;;;12.84;100.00;97593.59;4980477;28;20548;-77
2021/08/30 01:22:42;;;;;;;5.43;4.97;;;13.90;99.90;;;12.87;100.00;97589.56;4975975;28;20471;-78
2021/08/30 01:25:13;;;;;;;6.53;5.93;;;13.80;99.90;;;12.85;100.00;97589.00;4978029;28;20465;-77
2021/08/30 01:27:43;;;;;;;6.70;5.80;;;13.90;99.90;;;12.79;100.00;97581.81;4963019;28;20461;-78
2021/08/30 01:30:15;;;;;;;5.80;5.27;;;13.80;99.90;;;12.79;100.00;97587.22;4974190;28;23056;-77
2021/08/30 01:32:47;;;;;;;5.60;5.10;;;13.80;99.90;;;12.71;100.00;97581.13;4978028;28;20462;-77
2021/08/30 01:35:18;;;;;;;6.73;5.70;;;13.80;99.90;;;12.73;100.00;97573.59;4971056;28;20478;-77
2021/08/30 01:37:49;;;;;;;5.90;5.40;;;13.90;99.90;;;12.69;100.00;97567.00;4977778;28;20477;-78
2021/08/30 01:40:21;;;;;;;5.73;5.10;;;13.80;99.90;;;12.67;100.00;97560.16;4949599;28;20827;-77
2021/08/30 01:42:51;;;;;;;6.27;5.67;;;13.80;99.90;;;12.83;100.00;97567.53;4976192;28;20505;-77
2021/08/30 01:45:24;;;;;;;5.33;4.90;;;13.90;99.90;;;12.74;100.00;97564.41;4978405;28;21020;-77
2021/08/30 01:47:58;;;;;;;8.40;5.57;;;13.80;99.90;;;12.74;100.00;97561.69;4980807;28;20752;-77
2021/08/30 01:50:26;;;;;;;4.97;4.50;;;13.80;99.90;;;12.72;100.00;97561.09;4982859;28;20470;-77
2021/08/30 01:52:55;;;;;;;6.13;5.33;;;13.80;99.90;;;12.79;100.00;97565.56;4962351;28;20528;-79
2021/08/30 01:55:33;;;;;;;5.83;5.23;;;13.80;99.90;;;12.74;100.00;97564.41;4964113;28;20557;-77
2021/08/30 02:00:50;;;;;;;7.17;4.40;;;13.80;99.90;;;12.64;100.00;97547.09;4974044;28;20458;-77
2021/08/30 02:03:21;;;;;;;4.40;4.00;;;13.70;99.90;;;12.61;100.00;97554.66;4971592;28;20497;-77
2021/08/30 02:05:53;;;;;;;5.30;4.80;;;13.70;99.90;;;12.59;100.00;97561.38;4975772;28;20465;-77
2021/08/30 02:08:22;;;;;;;5.93;5.40;;;13.70;99.90;;;12.31;100.00;97519.63;4969001;28;20469;-77
2021/08/30 02:10:52;;;;;;;6.03;5.37;;;13.70;99.90;;;12.65;100.00;97560.41;4978003;28;20889;-77
2021/08/30 02:13:22;;;;;;;10.23;7.03;;;13.70;99.90;;;12.63;100.00;97557.13;4971326;28;20433;-77
2021/08/30 02:15:51;;;;;;;10.47;6.00;;;13.70;99.90;;;12.61;100.00;97559.25;4980267;28;20519;-77
2021/08/30 02:18:27;;;;;;;10.50;6.47;;;13.70;99.90;;;12.67;100.00;97552.03;4976491;28;20448;-77
2021/08/30 02:21:02;;;;;;;7.77;6.67;;;13.70;99.90;;;12.61;100.00;97553.81;4980182;28;20464;-77
2021/08/30 02:23:35;;;;;;;7.97;5.67;;;13.70;99.90;;;12.66;100.00;97544.97;4987488;28;20479;-77
2021/08/30 02:26:11;;;;;;;6.43;5.57;;;13.70;99.90;;;12.61;100.00;97538.41;4979214;28;20533;-77
2021/08/30 02:28:41;;;;;;;5.37;4.87;;;13.70;99.90;;;12.70;100.00;97540.72;4976403;28;20461;-77
2021/08/30 02:31:09;;;;;;;6.10;5.50;;;13.70;99.90;;;12.65;100.00;97530.59;4978760;28;20472;-77
2021/08/30 02:33:39;;;;;;;5.90;5.17;;;13.70;99.90;;;12.58;100.00;97535.34;4980074;28;20472;-77
2021/08/30 02:36:08;;;;;;;13.90;5.60;;;13.70;99.90;;;12.66;100.00;97524.13;4960455;28;20480;-77
2021/08/30 02:38:37;;;;;;;5.93;5.10;;;13.70;99.90;;;12.70;100.00;97533.41;4979621;28;20540;-77
2021/08/30 02:41:06;;;;;;;6.60;5.10;;;13.80;99.90;;;12.72;100.00;97517.72;4971612;28;20453;-77
2021/08/30 02:43:34;;;;;;;5.90;5.33;;;13.80;99.90;;;12.73;100.00;97519.38;4975791;28;22448;-77
2021/08/30 02:46:03;;;;;;;5.80;5.03;;;13.80;99.90;;;12.73;100.00;97535.66;4970244;28;20872;-77
2021/08/30 02:48:31;;;;;;;5.50;5.00;;;13.80;99.90;;;12.66;100.00;97531.44;4975958;28;20462;-77
2021/08/30 02:51:00;;;;;;;5.20;4.80;;;13.70;99.90;;;12.67;100.00;97536.63;4972406;28;20967;-77
2021/08/30 02:53:28;;;;;;;7.00;5.67;;;13.70;99.90;;;12.77;100.00;97532.44;4977388;28;20469;-77
2021/08/30 02:55:55;;;;;;;5.43;4.70;;;13.80;99.90;;;12.77;100.00;97524.31;4976214;28;20461;-77
2021/08/30 02:58:24;;;;;;;5.07;4.67;;;13.90;99.90;;;12.76;100.00;97537.06;4973309;28;20972;-77
2021/08/30 03:00:52;;;;;;;5.30;4.80;;;13.80;99.90;;;12.71;100.00;97521.50;4983505;28;21005;-77
2021/08/30 03:03:20;;;;;;;4.70;4.30;;;13.80;99.90;;;12.76;100.00;97528.94;4984651;28;20453;-77
2021/08/30 03:05:48;;;;;;;3.93;3.63;;;13.80;99.90;;;12.74;100.00;97526.44;4974194;28;20713;-77
2021/08/30 03:08:17;;;;;;;4.40;3.40;;;13.80;99.90;;;12.55;100.00;97504.13;4975998;28;20466;-77
2021/08/30 03:10:46;;;;;;;4.10;3.40;;;13.80;99.90;;;12.60;100.00;97531.34;4982312;28;20453;-77
2021/08/30 03:13:15;;;;;;;3.00;2.70;;;13.70;99.90;;;12.60;100.00;97534.03;4982631;28;20520;-77
2021/08/30 03:15:46;;;;;;;2.80;2.60;;;13.70;99.90;;;12.52;100.00;97517.34;4973526;28;20457;-77
2021/08/30 03:18:14;;;;;;;3.10;2.90;;;13.70;99.90;;;12.60;100.00;97535.91;4960426;28;20512;-77
2021/08/30 03:20:42;;;;;;;3.07;2.87;;;13.70;99.90;;;12.55;100.00;97533.91;4977187;28;20562;-77
2021/08/30 03:23:10;;;;;;;2.90;2.70;;;13.60;99.90;;;12.53;100.00;97540.66;4955442;28;20465;-77
2021/08/30 03:25:39;;;;;;;3.00;2.80;;;13.60;99.90;;;12.46;100.00;97538.91;4959824;28;20471;-77
2021/08/30 03:28:10;;;;;;;3.70;3.10;;;13.50;99.90;;;12.45;100.00;97541.88;4973119;28;20492;-77
2021/08/30 03:30:38;;;;;;;4.23;2.93;;;13.60;99.90;;;12.22;100.00;97492.09;4975733;28;20951;-77
2021/08/30 03:33:07;;;;;;;3.57;3.20;;;13.60;99.90;;;12.42;100.00;97545.88;4945178;28;20568;-78
2021/08/30 03:35:35;;;;;;;3.20;3.00;;;13.60;99.90;;;12.49;100.00;97553.03;4952455;28;20457;-77
2021/08/30 03:38:03;;;;;;;4.07;3.60;;;13.50;99.90;;;12.47;100.00;97543.25;4982780;28;20977;-77
2021/08/30 03:40:31;;;;;;;3.70;3.40;;;13.60;99.90;;;12.30;100.00;97509.84;4966015;28;20497;-76
2021/08/30 03:43:00;;;;;;;4.87;2.97;;;13.50;99.90;;;12.44;100.00;97548.34;4974479;28;20579;-77
2021/08/30 03:45:30;;;;;;;3.63;2.87;;;13.50;99.90;;;12.46;100.00;97548.94;4972291;28;20489;-77
2021/08/30 03:47:58;;;;;;;3.73;3.43;;;13.50;99.90;;;12.45;100.00;97550.81;4972827;28;20796;-77
2021/08/30 03:50:25;;;;;;;4.30;3.90;;;13.50;99.90;;;12.49;100.00;97555.72;4976026;28;20457;-77
2021/08/30 03:52:53;;;;;;;3.70;3.37;;;13.50;99.90;;;12.40;100.00;97556.13;4970776;28;20465;-77
2021/08/30 03:55:20;;;;;;;3.60;3.10;;;13.50;99.90;;;12.39;100.00;97550.94;4972834;28;20465;-77
2021/08/30 03:57:52;;;;;;;4.00;3.70;;;13.50;99.90;;;12.42;100.00;97555.88;4975843;28;20898;-77
2021/08/30 04:00:21;;;;;;;3.57;3.27;;;13.50;99.90;;;11.99;100.00;97504.59;4975500;28;20463;-77
2021/08/30 04:02:50;;;;;;;5.47;3.97;;;13.40;99.90;;;12.41;100.00;97565.06;4975462;28;20457;-78
2021/08/30 04:05:22;;;;;;;4.57;3.87;;;13.40;99.90;;;12.31;100.00;97549.41;4974984;28;20485;-77
2021/08/30 04:07:50;;;;;;;4.10;3.70;;;13.40;99.90;;;12.28;100.00;97568.84;4954021;28;20568;-77
2021/08/30 04:10:17;;;;;;;5.03;4.37;;;13.40;99.90;;;12.24;100.00;97560.38;4973767;28;20483;-77
2021/08/30 04:12:45;;;;;;;4.43;4.03;;;13.40;99.90;;;12.14;100.00;97554.75;4972928;28;20457;-77
2021/08/30 04:15:12;;;;;;;5.63;4.40;;;13.40;99.90;;;12.24;100.00;97562.28;4972976;28;20470;-77
2021/08/30 04:17:40;;;;;;;5.00;4.50;;;13.40;99.90;;;12.12;100.00;97530.59;4975427;28;20458;-76
2021/08/30 04:20:09;;;;;;;5.20;4.57;;;13.40;99.90;;;12.37;100.00;97570.16;4967154;28;20461;-77
2021/08/30 04:22:36;;;;;;;9.10;4.17;;;13.40;99.90;;;12.39;100.00;97581.56;4956896;28;20522;-77
2021/08/30 04:25:03;;;;;;;5.33;4.80;;;13.50;99.90;;;12.28;100.00;97582.41;4974076;28;20572;-77
2021/08/30 04:27:31;;;;;;;5.53;5.03;;;13.40;99.90;;;12.30;100.00;97585.69;4976810;28;20465;-77
2021/08/30 04:29:58;;;;;;;6.23;5.03;;;13.40;99.90;;;12.42;100.00;97586.50;4971774;28;20480;-77
2021/08/30 04:32:25;;;;;;;5.70;5.10;;;13.40;99.90;;;12.19;100.00;97574.63;4972810;28;21031;-77
2021/08/30 04:34:53;;;;;;;9.90;5.63;;;13.40;99.90;;;12.28;100.00;97579.69;4971186;28;20467;-77
2021/08/30 04:37:21;;;;;;;6.57;5.87;;;13.50;99.90;;;12.22;100.00;97575.22;4973268;28;20492;-77
2021/08/30 04:39:48;;;;;;;6.20;5.60;;;13.40;99.90;;;11.84;100.00;97534.81;4972745;28;20965;-77
2021/08/30 04:42:15;;;;;;;6.77;5.17;;;13.40;99.90;;;12.24;100.00;97592.88;4966931;28;20515;-78
2021/08/30 04:44:42;;;;;;;5.93;5.33;;;13.40;99.90;;;12.17;100.00;97592.19;4977519;28;20481;-79
2021/08/30 04:47:09;;;;;;;4.90;3.83;;;13.30;99.90;;;12.02;100.00;97574.53;4975894;28;20469;-77
2021/08/30 04:49:37;;;;;;;9.93;5.40;;;13.20;99.90;;;12.11;100.00;97599.38;4979359;28;20849;-78
2021/08/30 04:52:07;;;;;;;10.57;5.30;;;13.20;99.90;;;12.14;100.00;97598.88;4982623;28;20457;-77
2021/08/30 04:54:34;;;;;;;5.63;4.80;;;13.30;99.90;;;12.22;100.00;97610.44;4970920;28;20896;-78
2021/08/30 04:57:01;;;;;;;5.77;4.80;;;13.30;99.90;;;11.83;100.00;97546.72;4968225;28;20490;-78
2021/08/30 04:59:28;;;;;;;6.10;4.70;;;13.20;99.90;;;12.28;100.00;97599.50;4981621;28;20498;-79
2021/08/30 05:01:55;;;;;;;6.30;5.30;;;13.30;99.90;;;12.28;100.00;97604.06;4973833;28;20800;-77
2021/08/30 05:04:22;;;;;;;5.23;4.80;;;13.30;99.90;;;12.30;100.00;97612.78;4980511;28;20492;-77
2021/08/30 05:06:49;;;;;;;6.53;5.40;;;13.40;99.90;;;12.29;100.00;97611.13;4979219;28;20960;-78
2021/08/30 05:09:19;;;;;;;6.27;5.63;;;13.40;99.90;;;12.35;100.00;97612.88;4970759;28;20480;-77
2021/08/30 05:11:46;;;;;;;5.70;5.20;;;13.30;99.90;;;12.08;100.00;97578.19;4977949;28;20552;-77
2021/08/30 05:14:13;;;;;;;5.20;4.80;;;13.40;99.90;;;12.32;100.00;97610.66;4954056;28;20530;-78
2021/08/30 05:16:43;;;;;;;5.83;5.23;;;13.40;99.90;;;12.35;100.00;97610.16;4964145;28;20456;-77
2021/08/30 05:19:10;;;;;;;6.23;5.63;;;13.40;99.90;;;12.13;100.00;97588.28;4974167;28;20561;-77
2021/08/30 05:21:37;;;;;;;6.20;5.70;;;13.40;99.90;;;12.30;100.00;97612.78;4973382;28;20501;-77
2021/08/30 05:24:08;;;;;;;5.73;5.13;;;13.40;99.90;;;12.33;100.00;97604.16;4973632;28;20460;-77
2021/08/30 05:26:37;;;;;;;5.67;5.07;;;13.40;99.90;;;12.05;100.00;97573.22;4975377;28;20471;-77
2021/08/30 05:29:05;;;;;;;7.13;5.97;;;13.40;99.90;;;12.33;100.00;97606.88;4979601;28;20859;-77
2021/08/30 05:31:32;;;;;;;5.87;5.37;;;13.40;99.90;;;12.49;100.00;97616.19;4971623;28;20556;-77
2021/08/30 05:34:00;;;;;;;6.00;5.40;;;13.50;99.90;;;12.50;100.00;97611.56;4983143;28;20457;-77
2021/08/30 05:36:27;;;;;;;5.73;5.23;;;13.60;99.90;;;12.40;100.00;97612.16;4956935;28;20477;-77
2021/08/30 05:38:56;;;;;;;7.83;5.20;;;13.50;99.90;;;12.56;100.00;97599.78;4979620;28;20500;-77
2021/08/30 05:41:25;;;;;;;5.20;4.80;;;13.60;99.90;;;12.62;100.00;97615.09;4976888;28;20477;-77
2021/08/30 05:43:55;;;;;;;6.10;5.60;;;13.70;99.90;;;12.58;100.00;97598.47;4978337;28;20485;-78
2021/08/30 05:46:22;;;;;;;5.80;5.30;;;13.60;99.90;;;12.59;100.00;97593.91;4976932;28;20484;-77
2021/08/30 05:48:50;;;;;;;6.77;6.17;;;13.70;99.90;;;12.75;100.00;97614.81;4978518;28;20461;-77
2021/08/30 05:51:20;;;;;;;6.60;6.00;;;13.80;99.90;;;12.76;100.00;97618.38;4964345;28;20457;-78
2021/08/30 05:53:47;;;;;;;6.20;5.60;;;13.80;99.90;;;12.91;100.00;97617.84;4963516;28;20461;-78
2021/08/30 05:56:15;;;;;;;6.80;6.13;;;13.90;99.90;;;12.86;100.00;97606.91;4982663;28;20465;-78
2021/08/30 05:58:44;;;;;;;7.43;6.60;;;14.00;99.90;;;13.04;100.00;97628.41;4977578;28;20542;-78
2021/08/30 06:01:12;;;;;;;6.53;5.93;;;14.00;99.90;;;13.01;100.00;97620.78;4983682;28;20469;-78
2021/08/30 06:03:41;;;;;;;6.30;5.70;;;14.10;99.90;;;13.09;100.00;97624.16;4978966;28;20481;-78
2021/08/30 06:06:09;;;;;;;5.43;4.93;;;14.10;99.90;;;12.77;100.00;97583.94;4986056;28;20564;-78
2021/08/30 06:08:36;;;;;;;5.60;4.87;;;14.10;99.90;;;12.88;100.00;97615.63;4960855;28;20484;-77
2021/08/30 06:11:04;;;;;;;5.50;5.07;;;14.00;99.90;;;12.94;100.00;97630.91;4977028;28;20504;-77
2021/08/30 06:13:31;;;;;;;4.80;4.40;;;14.00;99.90;;;12.92;100.00;97630.34;4983546;28;20511;-78
2021/08/30 06:16:01;;;;;;;5.47;4.97;;;14.00;99.90;;;12.89;100.00;97630.81;4974908;28;20826;-77
2021/08/30 06:18:33;;;;;;;5.63;5.17;;;13.90;99.90;;;12.85;100.00;97624.25;4986436;28;20465;-77
2021/08/30 06:21:02;;;;;;;5.20;4.77;;;14.00;99.90;;;12.85;100.00;97624.25;4982890;28;20525;-78
2021/08/30 06:23:30;;;;;;;4.97;4.57;;;14.00;99.90;;;12.87;100.00;97632.97;4985275;28;20465;-78
2021/08/30 06:25:59;;;;;;;4.87;4.47;;;14.00;99.90;;;12.77;100.00;97611.88;4957986;28;20545;-78
2021/08/30 06:28:26;;;;;;;5.13;4.63;;;14.00;99.90;;;12.95;100.00;97635.28;4984415;28;20457;-78
2021/08/30 06:30:53;;;;;;;4.80;4.40;;;14.00;99.90;;;13.05;100.00;97618.41;4977280;28;20720;-78
2021/08/30 06:33:21;;;;;;;5.40;5.00;;;14.20;99.90;;;13.12;100.00;97620.97;4984600;28;20465;-78
2021/08/30 06:35:51;;;;;;;5.10;4.60;;;14.30;99.90;;;13.06;100.00;97590.22;4989956;28;20547;-79
2021/08/30 06:38:20;;;;;;;4.70;4.20;;;14.30;99.90;;;13.53;100.00;97645.38;4990859;28;20453;-78
2021/08/30 06:40:48;;;;;;;4.40;4.10;;;14.40;99.90;;;13.55;100.00;97649.47;4982571;28;20515;-78
2021/08/30 06:43:19;;;;;;;4.90;4.30;;;14.60;99.90;;;13.45;100.00;97638.44;4973304;28;20485;-78
2021/08/30 06:45:48;;;;;;;4.30;4.00;;;14.50;99.90;;;13.49;100.00;97650.44;4981228;28;20474;-78
2021/08/30 06:48:16;;;;;;;4.60;4.20;;;14.50;99.90;;;13.65;100.00;97653.44;4979259;28;20469;-78
2021/08/30 06:50:44;;;;;;;5.07;3.90;;;14.60;99.90;;;13.52;100.00;97622.00;4978838;28;20554;-77
2021/08/30 06:53:13;;;;;;;5.33;4.90;;;14.70;99.90;;;13.80;100.00;97659.13;4977243;28;20492;-78
2021/08/30 06:55:40;;;;;;;3.90;3.70;;;14.80;99.90;;;13.80;100.00;97645.56;4977570;28;20472;-78
2021/08/30 06:58:08;;;;;;;5.53;3.80;;;14.90;99.90;;;14.03;100.00;97660.06;4986739;28;20524;-78
2021/08/30 07:00:37;;;;;;;3.67;3.47;;;15.00;99.90;;;14.02;98.52;97647.53;4985261;28;20972;-78
2021/08/30 07:03:05;;;;;;;4.23;3.60;;;15.10;97.90;;;14.22;99.82;97655.19;4985726;28;20490;-77
2021/08/30 07:05:32;;;;;;;2.87;2.67;;;15.20;99.90;;;14.26;96.43;97658.25;4981113;28;20477;-78
2021/08/30 07:07:59;;;;;;;3.30;2.80;;;15.30;95.80;;;14.41;96.34;97661.19;4957908;28;20466;-78
2021/08/30 07:10:28;;;;;;;3.30;3.10;;;15.40;95.70;;;14.71;93.47;97662.72;4960635;28;20457;-77
2021/08/30 07:12:56;;;;;;;2.70;2.53;;;15.60;92.90;;;14.83;93.91;97659.06;4957606;28;20478;-77
2021/08/30 07:15:23;;;;;;;2.83;2.63;;;15.80;93.80;;;15.04;94.75;97638.41;4980661;28;20473;-78
2021/08/30 07:17:50;;;;;;;3.30;2.20;;;16.10;94.60;;;15.23;91.73;97652.47;4979502;28;20503;-78
2021/08/30 07:20:18;;;;;;;2.20;2.10;;;16.30;92.30;;;15.12;90.99;97645.28;4979270;28;20484;-77
2021/08/30 07:22:45;;;;;;;2.47;2.27;;;16.30;91.40;;;15.17;92.05;97667.09;4973037;28;20536;-77
2021/08/30 07:25:12;;;;;;;2.30;2.10;;;16.20;92.00;;;15.09;91.44;97637.63;4971082;28;20831;-78
2021/08/30 07:27:43;;;;;;;2.40;2.20;;;16.20;91.70;;;15.04;93.06;97645.72;4959964;28;20940;-79
2021/08/30 07:30:12;;;;;;;1.80;1.70;;;16.30;92.70;;;15.12;91.67;97667.06;4976202;28;20465;-78
2021/08/30 07:32:39;;;;;;;2.00;1.90;;;16.20;91.50;;;14.92;91.45;97660.25;4973891;28;20462;-78
2021/08/30 07:35:07;;;;;;;2.03;1.93;;;16.10;91.60;;;15.04;91.44;97673.75;4976324;28;20466;-78
2021/08/30 07:37:35;;;;;;;1.70;1.60;;;16.10;91.80;;;15.17;91.33;97678.00;4978178;28;20555;-78
2021/08/30 07:40:03;;;;;;;1.57;1.50;;;16.10;91.80;;;15.26;90.67;97689.25;4976228;28;20467;-78
2021/08/30 07:42:30;;;;;;;1.70;1.37;;;16.20;91.50;;;15.16;92.14;97689.94;4973594;28;20492;-78
2021/08/30 07:45:01;;;;;;;1.97;1.77;;;16.20;91.60;;;15.18;90.71;97695.16;4983387;28;20934;-78
2021/08/30 07:47:28;;;;;;;1.60;1.50;;;16.20;91.20;;;15.40;89.93;97692.41;4972796;28;20462;-78
2021/08/30 07:49:56;;;;;;;1.80;1.70;;;16.40;90.90;;;15.36;91.45;97680.38;4978466;28;20489;-78
2021/08/30 07:52:23;;;;;;;1.80;1.70;;;16.40;91.70;;;15.99;89.03;97693.56;4971852;28;21020;-78
2021/08/30 07:54:50;;;;;;;1.60;1.50;;;16.70;91.30;;;16.39;86.21;97697.72;4979240;28;20466;-78
2021/08/30 07:57:18;;;;;;;2.07;1.97;;;17.10;90.00;;;16.38;86.41;97695.28;4980593;28;20516;-78
2021/08/30 07:59:45;;;;;;;2.73;1.43;;;17.40;89.40;;;16.39;86.76;97699.63;4976874;28;20585;-78
2021/08/30 08:02:13;;;;;;;2.00;1.73;;;17.30;89.30;;;16.27;85.34;97707.97;4957595;28;20458;-78
2021/08/30 08:04:41;;;;;;;1.33;1.23;;;17.20;87.50;;;15.65;85.94;97655.63;4980738;28;20836;-78
2021/08/30 08:07:08;;;;;;;1.90;1.70;;;17.10;87.60;;;15.85;87.71;97718.50;4981485;28;20462;-78
2021/08/30 08:09:36;;;;;;;3.43;1.73;;;16.90;89.00;;;15.95;86.96;97714.25;4980164;28;20495;-78
2021/08/30 08:12:05;;;;;;;3.30;2.00;;;16.90;88.90;;;15.79;87.32;97716.78;4960175;28;20457;-78
2021/08/30 08:14:32;;;;;;;1.90;1.80;;;16.80;88.80;;;15.51;87.69;97712.41;4985060;28;20526;-78
2021/08/30 08:16:59;;;;;;;2.43;2.13;;;16.60;88.80;;;15.49;89.55;97723.53;4981471;28;20552;-79
2021/08/30 08:19:28;;;;;;;3.03;2.10;;;16.50;90.20;;;15.66;89.51;97719.91;4988859;28;20457;-78
2021/08/30 08:21:56;;;;;;;1.70;1.60;;;16.50;90.70;;;15.75;88.07;97728.44;4979725;28;20469;-79
2021/08/30 08:24:24;;;;;;;1.63;1.53;;;16.70;90.00;;;15.73;88.84;97728.72;4989105;28;20467;-79
2021/08/30 08:26:51;;;;;;;3.73;1.60;;;16.70;90.30;;;15.57;89.29;97724.97;4982997;28;20508;-78
2021/08/30 08:29:19;;;;;;;3.20;2.03;;;16.60;90.30;;;15.32;91.63;97742.69;4987420;28;20531;-78
2021/08/30 08:31:46;;;;;;;1.73;1.43;;;16.40;91.20;;;15.17;92.96;97732.41;4960783;28;20493;-79
2021/08/30 08:34:17;;;;;;;1.90;1.80;;;16.30;92.50;;;14.92;93.01;97747.31;4984694;28;20465;-78
2021/08/30 08:36:50;;;;;;;1.43;1.33;;;16.10;92.20;;;14.81;95.80;97761.84;4980303;28;20516;-78
2021/08/30 08:39:18;;;;;;;1.83;1.73;;;16.00;94.30;;;14.77;97.31;97761.50;4963370;28;20464;-79
2021/08/30 08:41:45;;;;;;;1.60;1.50;;;15.80;96.10;;;14.83;96.85;97762.41;4963905;28;20808;-78
2021/08/30 08:44:14;;;;;;;1.73;1.00;;;15.80;96.00;;;14.96;94.75;97740.31;4979962;28;20480;-78
2021/08/30 08:46:42;;;;;;;1.00;0.90;;;16.00;95.10;;;15.39;93.12;97756.06;4963222;28;20568;-79
2021/08/30 08:49:10;;;;;;;1.13;0.87;;;16.20;93.90;;;15.69;91.07;97765.69;4987114;28;20503;-79
2021/08/30 08:51:37;;;;;;;1.40;0.93;;;16.50;92.40;;;15.91;91.55;97762.16;4982218;28;21483;-78
2021/08/30 08:54:08;;;;;;;1.47;1.30;;;16.70;92.80;;;15.43;91.25;97708.22;4979448;28;20475;-79
2021/08/30 08:56:35;;;;;;;0.80;0.60;;;16.70;91.90;;;15.87;87.77;97767.25;4987119;28;20449;-79
2021/08/30 08:59:07;;;;;;;0.50;0.30;;;16.70;90.40;;;15.95;87.98;97768.72;4947648;28;20452;-78
2021/08/30 09:01:36;;;;;;;0.60;0.60;;;16.80;90.20;;;16.05;89.19;97768.84;4981941;28;20454;-78
2021/08/30 09:04:05;;;;;;;0.60;0.60;;;17.00;90.60;;;15.97;84.54;97769.28;4980995;28;20461;-79
2021/08/30 09:06:39;;;;;;;0.70;0.60;;;17.00;87.10;;;15.95;86.28;97758.66;4980929;28;20516;-79
2021/08/30 09:09:11;;;;;;;0.97;0.70;;;17.00;88.30;;;16.35;85.47;97759.31;4978353;28;20468;-79
2021/08/30 09:11:40;;;;;;;1.23;0.80;;;17.30;88.50;;;16.84;84.42;97773.84;4980791;28;20473;-79
2021/08/30 09:14:16;;;;;;;0.87;0.80;;;17.70;87.90;;;16.76;81.85;97756.06;4974455;28;20444;-79
2021/08/30 09:16:45;;;;;;;0.90;0.70;;;18.00;84.70;;;17.03;81.14;97779.72;4983525;28;20444;-79
2021/08/30 09:19:15;;;;;;;0.70;0.50;;;18.10;83.70;;;16.91;80.21;97790.81;4969176;28;20457;-80
2021/08/30 09:21:46;;;;;;;0.83;0.70;;;18.00;83.00;;;16.95;79.81;97786.47;4983881;28;20586;-78
2021/08/30 09:24:20;;;;;;;0.43;0.43;;;17.90;82.80;;;17.33;78.90;97797.38;4983065;28;20457;-80
2021/08/30 09:26:49;;;;;;;0.57;0.57;;;18.20;82.10;;;17.31;78.78;97793.25;4966581;28;20481;-79
2021/08/30 09:29:22;;;;;;;0.90;0.90;;;18.30;81.40;;;17.60;78.89;97801.03;4969599;28;20496;-79
2021/08/30 09:32:06;;;;;;;0.90;0.60;;;18.50;82.30;;;17.86;76.97;97777.34;4964848;28;20457;-78
2021/08/30 09:34:37;;;;;;;3.77;0.70;;;18.90;80.50;;;18.38;72.30;97780.22;4990432;28;20454;-79
2021/08/30 09:37:07;;;;;;;2.00;1.03;;;19.30;76.80;;;18.25;73.82;97773.34;4984429;28;20492;-78
2021/08/30 09:39:36;;;;;;;0.70;0.70;;;19.30;77.10;;;18.49;70.16;97772.84;4981346;28;20461;-79
2021/08/30 09:42:03;;;;;;;0.90;0.70;;;19.40;74.80;;;18.55;71.10;97791.72;4983046;28;20457;-79
2021/08/30 09:44:31;;;;;;;1.03;0.73;;;19.40;74.60;;;18.63;71.43;97789.50;4982678;28;20492;-79
2021/08/30 09:47:10;;;;;;;0.63;0.63;;;19.50;75.00;;;18.30;70.62;97762.44;4982853;28;20844;-79
2021/08/30 09:49:38;;;;;;;0.60;0.60;;;19.20;73.90;;;18.57;68.70;97785.97;4982017;28;20465;-80
2021/08/30 09:52:08;;;;;;;0.97;0.90;;;19.40;72.20;;;18.88;70.33;97788.72;4968494;28;20466;-79
2021/08/30 09:54:36;;;;;;;0.60;0.60;;;19.70;73.40;;;18.72;66.65;97744.09;4954607;28;20453;-79
2021/08/30 09:57:07;;;;;;;0.57;0.57;;;19.80;70.70;;;19.31;66.74;97784.78;4983822;28;20513;-79
2021/08/30 09:59:43;;;;;;;0.70;0.70;;;20.10;70.90;;;19.45;65.15;97780.38;4983143;28;20620;-79
2021/08/30 10:02:15;;;;;;;1.83;0.70;;;20.30;70.30;;;19.49;67.56;97786.13;4994090;28;20463;-80
2021/08/30 10:04:44;;;;;;;0.50;0.50;;;20.30;71.10;;;19.54;65.55;97783.34;4987006;28;20478;-78
2021/08/30 10:07:13;;;;;;;1.23;0.60;;;20.40;69.60;;;19.74;66.33;97779.69;4968549;28;20481;-80
2021/08/30 10:09:42;;;;;;;0.93;0.60;;;20.50;70.30;;;19.88;65.06;97779.09;4961141;28;20460;-78
2021/08/30 10:12:09;;;;;;;0.50;0.40;;;20.70;69.10;;;19.57;62.83;97763.63;4981565;28;20451;-78
2021/08/30 10:14:37;;;;;;;1.57;0.57;;;20.70;67.00;;;19.60;65.14;97781.41;4993847;28;20669;-78
2021/08/30 10:17:06;;;;;;;0.97;0.60;;;20.50;69.00;;;19.85;64.78;97771.44;4968146;28;20465;-78
2021/08/30 10:19:37;;;;;;;1.07;0.63;;;20.60;68.80;;;19.97;65.23;97785.66;4980826;28;20489;-79
2021/08/30 10:22:19;;;;;;;0.60;0.60;;;20.80;68.40;;;20.48;65.45;97770.78;4975101;28;20553;-79
2021/08/30 10:24:49;;;;;;;0.60;0.50;;;21.30;69.50;;;20.31;64.26;97787.63;4966397;28;20467;-79